Latest Weather Observations for Barimunya

IDW60801

Issued at 9:13 pm WST Thursday 22 August 2019 (issued every 10 minutes, with the page automatically refreshed every 10 minutes)

About weather observations | Map of weather stations | Latest weather observations for WA | Other Formats
Station Details ID: 505053 Name: BARIMUNYA Lat: -22.67 Lon: 119.16 Height: 629.17 m
Data from the previous 72 hours. | See also: Recent months for locations in Western Australia
Date/Time
WST
Temp
°C
App
Temp
°C
Dew
Point
°C
Rel
Hum
%
Delta-T
°C
Wind Press
QNH
hPa
Press
MSL
hPa
Rain since
9am
mm
Dir  Spd
km/h
Gust
km/h
Spd
kts
Gust
kts
22/09:00pm 14.1 11.5 -4.6 27 7.3 CALM 0 0 0 0 1022.3 1020.6 0.0
22/08:30pm 15.4 12.0 -5.6 23 8.2 E 4 7 2 4 1022.3 1020.6 0.0
22/08:00pm 15.3 12.7 -4.6 25 7.9 CALM 0 0 0 0 1022.2 1020.5 0.0
22/07:30pm 16.0 13.6 -3.5 26 8.0 CALM 0 0 0 0 1022.0 1020.3 0.0
22/07:00pm 17.4 14.8 -5.1 21 9.0 CALM 0 6 0 3 1021.9 1020.2 0.0
22/06:30pm 19.5 16.7 -7.0 16 10.5 CALM 0 0 0 0 1021.6 1019.9 0.0
22/06:00pm 21.6 18.5 -11.3 10 12.2 CALM 0 0 0 0 1021.4 1019.6 0.0
22/05:30pm 23.6 19.1 -14.2 7 13.6 E 6 7 3 4 1021.3 1019.5 0.0
22/05:00pm 24.9 21.3 -13.2 7 14.1 ENE 2 7 1 4 1021.2 1019.4 0.0
22/04:30pm 24.2 19.2 -13.7 7 13.9 ESE 9 15 5 8 1021.1 1019.3 0.0
22/04:00pm 24.7 20.1 -13.4 7 14.0 NE 7 13 4 7 1021.0 1019.2 0.0
22/03:30pm 25.0 20.6 -13.2 7 14.2 ENE 6 11 3 6 1020.9 1019.1 0.0
22/03:00pm 24.4 19.0 -13.6 7 13.9 NNE 11 17 6 9 1020.9 1019.1 0.0
22/02:30pm 24.9 19.2 -13.2 7 14.2 ESE 13 20 7 11 1021.1 1019.3 0.0
22/02:00pm 23.3 17.5 -14.4 7 13.4 ESE 13 20 7 11 1021.1 1019.3 0.0
22/01:30pm 23.9 19.0 -12.3 8 13.5 ENE 9 19 5 10 1021.7 1020.0 0.0
22/01:00pm 23.0 18.6 -13.0 8 13.1 N 6 20 3 11 1022.2 1020.5 0.0
22/12:30pm 22.5 16.8 -13.4 8 12.9 NE 13 20 7 11 1022.7 1020.9 0.0
22/12:00pm 22.3 15.5 -12.1 9 12.6 NNE 19 26 10 14 1023.3 1021.6 0.0
22/11:30am 21.8 15.4 -11.1 10 12.3 NNE 17 28 9 15 1023.9 1022.2 0.0
22/11:00am 21.4 15.0 -11.4 10 12.1 NE 17 26 9 14 1024.5 1022.8 0.0
22/10:30am 20.9 13.9 -11.8 10 11.9 ENE 20 28 11 15 1024.9 1023.2 0.0
22/10:00am 20.9 14.1 -11.8 10 11.9 E 19 26 10 14 1025.2 1023.5 0.0
22/09:30am 20.0 13.2 -11.3 11 11.4 NE 19 26 10 14 1025.4 1023.7 0.0
22/09:00am 19.2 12.8 -11.9 11 11.0 E 17 24 9 13 1025.4 1023.7 0.0
22/08:30am 18.3 11.4 -10.6 13 10.5 E 20 28 11 15 1025.3 1023.6 0.0
22/08:00am 16.2 11.3 -7.4 19 8.9 ESE 11 17 6 9 1025.2 1023.5 0.0
22/07:30am 14.5 10.4 -6.4 23 7.9 E 7 7 4 4 1025.1 1023.4 0.0
22/07:00am 11.2 7.1 -6.2 29 6.3 E 7 11 4 6 1024.9 1023.2 0.0
22/06:30am 8.1 4.3 -5.3 38 4.8 E 6 7 3 4 1024.7 1023.0 0.0
22/06:00am 9.1 5.1 -5.9 34 5.4 E 7 9 4 5 1024.4 1022.6 0.0
22/05:30am 12.2 7.7 -6.7 26 6.9 E 9 11 5 6 1024.0 1022.3 0.0
22/05:00am 12.1 7.6 -6.8 26 6.9 E 9 11 5 6 1023.9 1022.2 0.0
22/04:30am 12.3 7.8 -6.6 26 7.0 E 9 11 5 6 1023.7 1022.0 0.0
22/04:00am 12.5 7.7 -6.5 26 7.0 E 11 13 6 7 1023.6 1021.9 0.0
22/03:30am 12.4 7.6 -6.5 26 7.0 E 11 13 6 7 1023.6 1021.9 0.0
22/03:00am 12.5 7.6 -7.0 25 7.1 E 11 15 6 8 1023.7 1022.0 0.0
22/02:30am 13.6 8.3 -7.1 23 7.7 ESE 13 15 7 8 1023.8 1022.1 0.0
22/02:00am 14.2 8.9 -7.2 22 7.9 ESE 13 17 7 9 1023.9 1022.2 0.0
22/01:30am 14.8 9.5 -7.3 21 8.3 ESE 13 20 7 11 1024.0 1022.3 0.0
22/01:00am 15.3 9.6 -7.5 20 8.5 ESE 15 20 8 11 1024.2 1022.4 0.0
22/12:30am 15.5 9.8 -8.0 19 8.7 ESE 15 19 8 10 1024.2 1022.4 0.0
22/12:00am 15.8 9.7 -7.7 19 8.8 ESE 17 20 9 11 1024.2 1022.4 0.0
 
Date/Time
WST
Temp
°C
App
Temp
°C
Dew
Point
°C
Rel
Hum
%
Delta-T
°C
Wind Press
QNH
hPa
Press
MSL
hPa
Rain since
9am
mm
Dir  Spd
km/h
Gust
km/h
Spd
kts
Gust
kts
21/11:30pm 15.5 10.2 -7.3 20 8.6 ESE 13 17 7 9 1024.2 1022.4 0.0
21/11:00pm 15.8 10.1 -7.1 20 8.6 E 15 17 8 9 1024.3 1022.5 0.0
21/10:30pm 15.5 10.3 -6.7 21 8.5 ESE 13 17 7 9 1024.3 1022.5 0.0
21/10:00pm 14.8 9.9 -6.7 22 8.1 ESE 11 13 6 7 1024.4 1022.6 0.0
21/09:30pm 15.2 11.1 -6.3 22 8.2 ESE 7 9 4 5 1024.4 1022.6 0.0
21/09:00pm 15.5 11.0 -6.7 21 8.4 ESE 9 11 5 6 1024.2 1022.4 0.0
21/08:30pm 15.7 11.5 -7.2 20 8.7 ESE 7 9 4 5 1024.0 1022.3 0.0
21/08:00pm 16.8 12.7 -6.9 19 9.1 ESE 7 9 4 5 1023.7 1022.0 0.0
21/07:30pm 16.7 12.6 -7.0 19 9.1 SE 7 9 4 5 1023.3 1021.6 0.0
21/07:00pm 17.1 13.1 -7.4 18 9.3 SE 6 6 3 3 1022.9 1021.1 0.0
21/06:30pm 18.2 14.0 -8.0 16 10.0 SE 7 9 4 5 1022.7 1020.9 0.0
21/06:00pm 20.4 15.0 -8.9 13 11.2 ESE 13 15 7 8 1022.2 1020.5 0.0
21/05:30pm 21.8 15.9 -9.9 11 12.1 ESE 15 24 8 13 1021.9 1020.2 0.0
21/05:00pm 22.8 16.1 -10.4 10 12.7 ESE 19 28 10 15 1021.7 1020.0 0.0
21/04:30pm 22.9 16.6 -10.3 10 12.8 E 17 28 9 15 1021.7 1020.0 0.0
21/04:00pm 23.3 17.8 -10.0 10 12.9 ESE 13 20 7 11 1021.8 1020.1 0.0
21/03:30pm 23.4 17.1 -9.9 10 13.0 E 17 24 9 13 1021.9 1020.2 0.0
21/03:00pm 22.9 16.7 -9.1 11 12.5 E 17 26 9 14 1022.1 1020.4 0.0
21/02:30pm 23.2 17.0 -8.9 11 12.7 E 17 28 9 15 1022.6 1020.8 0.0
21/02:00pm 22.4 16.3 -7.3 13 12.0 E 17 26 9 14 1022.9 1021.1 0.0
21/01:30pm 22.0 15.9 -7.6 13 11.9 E 17 28 9 15 1023.3 1021.6 0.0
21/01:00pm 21.6 15.5 -8.0 13 11.7 E 17 28 9 15 1023.6 1021.9 0.0
21/12:30pm 20.5 14.1 -7.0 15 11.0 ENE 19 32 10 17 1024.0 1022.3 0.0
21/12:00pm 20.1 13.5 -6.5 16 10.6 E 20 37 11 20 1024.7 1023.0 0.0
21/11:30am 20.0 12.7 -5.8 17 10.5 E 24 33 13 18 1025.3 1023.6 0.0
21/11:00am 19.2 12.3 -5.7 18 10.0 E 22 30 12 16 1025.7 1024.0 0.0
21/10:30am 18.6 11.4 -5.4 19 9.7 E 24 37 13 20 1026.2 1024.5 0.0
21/10:00am 17.4 9.5 -5.1 21 9.0 E 28 41 15 22 1026.5 1024.8 0.0
21/09:30am 16.8 9.3 -4.4 23 8.6 E 26 41 14 22 1026.7 1025.0 0.0
21/09:00am 15.9 8.0 -4.6 24 8.2 E 28 39 15 21 1026.9 1025.2 0.0
21/08:30am 15.0 8.2 -4.8 25 7.8 ESE 22 37 12 20 1027.1 1025.4 0.0
21/08:00am 14.5 7.7 -4.7 26 7.5 ESE 22 44 12 24 1027.1 1025.4 0.0
21/07:30am 13.4 7.1 -4.2 29 6.9 ESE 20 30 11 16 1026.9 1025.2 0.0
21/07:00am 12.7 7.3 -4.4 30 6.6 ESE 15 24 8 13 1026.5 1024.8 0.0
21/06:30am 12.1 6.7 -4.9 30 6.5 SE 15 30 8 16 1026.4 1024.7 0.0
21/06:00am 12.6 6.8 -4.9 29 6.7 ESE 17 24 9 13 1026.1 1024.4 0.0
21/05:30am 13.0 6.8 -5.1 28 7.0 ESE 19 28 10 15 1025.9 1024.2 0.0
21/05:00am 13.2 6.9 -5.4 27 7.1 ESE 19 26 10 14 1025.6 1023.9 0.0
21/04:30am 13.7 6.9 -5.4 26 7.3 ESE 22 35 12 19 1025.5 1023.8 0.0
21/04:00am 14.0 7.5 -5.7 25 7.5 ESE 20 33 11 18 1025.4 1023.7 0.0
21/03:30am 14.4 6.8 -5.9 24 7.8 ESE 26 44 14 24 1025.4 1023.7 0.0
21/03:00am 14.9 6.1 -6.0 23 8.0 ESE 32 50 17 27 1025.3 1023.6 0.0
21/02:52am 15.2 6.4 -5.8 23 8.1 ESE 32 50 17 27 1025.2 1023.5 0.0
21/02:30am 15.0 7.0 -5.9 23 8.1 ESE 28 41 15 22 1025.3 1023.6 0.0
21/02:00am 15.3 6.5 -6.3 22 8.2 ESE 32 44 17 24 1025.4 1023.7 0.0
21/01:30am 15.5 7.4 -6.7 21 8.5 ESE 28 44 15 24 1025.6 1023.9 0.0
21/01:23am 15.7 7.6 -6.5 21 8.5 ESE 28 46 15 25 1025.6 1023.9 0.0
21/01:00am 15.5 8.2 -6.7 21 8.4 ESE 24 33 13 18 1025.7 1024.0 0.0
21/12:30am 15.6 8.7 -6.0 22 8.4 ESE 22 35 12 19 1026.1 1024.4 0.0
21/12:00am 15.7 8.8 -5.9 22 8.3 ESE 22 37 12 20 1026.4 1024.7 0.0
 
Date/Time
WST
Temp
°C
App
Temp
°C
Dew
Point
°C
Rel
Hum
%
Delta-T
°C
Wind Press
QNH
hPa
Press
MSL
hPa
Rain since
9am
mm
Dir  Spd
km/h
Gust
km/h
Spd
kts
Gust
kts
20/11:30pm 15.9 9.0 -5.8 22 8.5 ESE 22 32 12 17 1026.4 1024.7 0.0
20/11:00pm 16.0 9.1 -6.3 21 8.6 ESE 22 32 12 17 1026.8 1025.1 0.0
20/10:30pm 15.8 9.5 -5.8 22 8.4 ESE 19 26 10 14 1027.0 1025.3 0.0
20/10:00pm 16.1 10.1 -6.2 21 8.6 ESE 17 26 9 14 1027.0 1025.3 0.0
20/09:30pm 16.5 9.9 -6.5 20 8.9 ESE 20 30 11 16 1027.0 1025.3 0.0
20/09:00pm 16.7 10.2 -6.3 20 8.9 ESE 20 32 11 17 1027.0 1025.3 0.0
20/08:30pm 17.0 10.4 -6.8 19 9.2 ESE 20 35 11 19 1026.8 1025.1 0.0
20/08:00pm 16.8 11.2 -6.9 19 9.1 ESE 15 20 8 11 1026.5 1024.8 0.0
20/07:30pm 17.5 10.9 -7.0 18 9.5 ESE 20 28 11 15 1026.1 1024.4 0.0
20/07:00pm 17.8 11.8 -6.8 18 9.5 ESE 17 26 9 14 1025.6 1023.9 0.0
20/06:30pm 18.2 12.1 -7.2 17 9.9 ESE 17 24 9 13 1025.2 1023.5 0.0
20/06:00pm 19.2 11.8 -7.2 16 10.3 ESE 24 32 13 17 1024.8 1023.1 0.0
20/05:30pm 19.9 11.7 -7.5 15 10.8 ESE 28 41 15 22 1024.6 1022.9 0.0
20/05:00pm 20.8 13.4 -7.6 14 11.2 ESE 24 33 13 18 1024.6 1022.9 0.0
20/04:30pm 21.0 12.4 -7.5 14 11.3 ESE 30 41 16 22 1024.6 1022.9 0.0
20/04:00pm 21.7 14.0 -6.9 14 11.5 ESE 26 37 14 20 1024.6 1022.9 0.0
20/03:30pm 21.5 13.4 -7.1 14 11.5 ESE 28 41 15 22 1024.5 1022.8 0.0
20/03:00pm 20.9 12.9 -5.8 16 10.9 ESE 28 39 15 21 1024.9 1023.2 0.0
20/02:30pm 20.4 12.4 -5.4 17 10.6 ESE 28 37 15 20 1025.2 1023.5 0.0
20/02:00pm 21.3 13.4 -4.7 17 10.9 ESE 28 37 15 20 1025.6 1023.9 0.0
20/01:30pm 20.2 12.3 -4.8 18 10.4 ESE 28 43 15 23 1025.9 1024.2 0.0
20/01:00pm 19.3 11.1 -4.2 20 9.8 ESE 30 44 16 24 1026.5 1024.8 0.0
20/12:48pm 20.0 12.2 -3.6 20 10.0 ESE 28 46 15 25 1026.7 1025.0 0.0
20/12:30pm 19.1 11.9 -5.0 19 9.9 ESE 24 39 13 21 1027.0 1025.3 0.0
20/12:00pm 18.1 10.7 -3.9 22 9.1 ESE 26 37 14 20 1027.8 1026.1 0.0
20/11:30am 17.5 9.8 -3.3 24 8.7 ESE 28 41 15 22 1028.3 1026.6 0.0
20/11:00am 16.2 8.5 -3.3 26 8.0 E 28 39 15 21 1028.8 1027.2 0.0
20/10:30am 15.6 7.5 -3.3 27 7.8 ESE 30 41 16 22 1029.3 1027.6 0.0
20/10:00am 14.7 6.1 -2.7 30 7.1 ESE 33 46 18 25 1029.8 1028.1 0.0
20/09:30am 13.5 5.1 -2.4 33 6.5 ESE 32 46 17 25 1030.1 1028.5 0.0
20/09:00am 13.4 4.5 -2.1 34 6.3 ESE 35 46 19 25 1029.8 1028.1 0.0
20/08:39am 12.5 4.0 -2.9 34 6.2 ESE 32 50 17 27 1029.7 1028.0 0.0
20/08:30am 12.6 4.5 -2.8 34 6.2 ESE 30 41 16 22 1029.8 1028.1 0.0
20/08:15am 12.5 4.9 -2.5 35 6.1 ESE 28 48 15 26 1029.6 1027.9 0.0
20/08:00am 12.0 4.0 -2.6 36 5.8 ESE 30 41 16 22 1029.5 1027.8 0.0
20/07:30am 11.3 2.9 -2.5 38 5.5 ESE 32 48 17 26 1029.3 1027.6 0.0
20/07:27am 11.2 3.2 -2.6 38 5.5 ESE 30 48 16 26 1029.4 1027.7 0.0
20/07:00am 10.8 3.5 -2.6 39 5.3 ESE 26 41 14 22 1029.0 1027.4 0.0
20/06:30am 10.4 3.5 -2.6 40 5.1 SE 24 33 13 18 1028.7 1027.1 0.0
20/06:00am 10.4 3.5 -2.9 39 5.2 SE 24 35 13 19 1028.6 1027.0 0.0
20/05:30am 10.6 2.9 -3.1 38 5.4 SE 28 37 15 20 1028.1 1026.4 0.0
20/05:00am 10.8 2.7 -3.3 37 5.5 SE 30 44 16 24 1027.8 1026.1 0.0
20/04:30am 11.2 2.7 -3.7 35 5.8 SE 32 44 17 24 1027.7 1026.0 0.0
20/04:00am 11.3 2.7 -4.0 34 5.9 SE 32 44 17 24 1027.6 1025.9 0.0
20/03:30am 11.5 2.9 -4.2 33 6.1 SE 32 44 17 24 1027.6 1025.9 0.0
20/03:00am 11.7 2.9 -4.4 32 6.1 ESE 33 46 18 25 1027.6 1025.9 0.0
20/02:30am 12.2 2.6 -4.8 30 6.5 SE 37 46 20 25 1027.6 1025.9 0.0
20/02:01am 12.3 3.0 -5.2 29 6.7 SE 35 54 19 29 1027.8 1026.1 0.0
20/02:00am 12.4 2.7 -5.6 28 6.7 SE 37 54 20 29 1027.8 1026.1 0.0
20/01:30am 12.9 3.2 -5.6 27 7.0 SE 37 54 20 29 1027.7 1026.0 0.0
20/01:00am 13.1 3.4 -5.9 26 7.1 ESE 37 50 20 27 1027.8 1026.1 0.0
20/12:30am 13.2 3.8 -5.9 26 7.2 SE 35 50 19 27 1028.0 1026.3 0.0
20/12:03am 13.7 4.7 -5.9 25 7.5 ESE 33 52 18 28 1028.2 1026.5 0.0
20/12:00am 13.6 4.2 -6.0 25 7.4 ESE 35 52 19 28 1028.1 1026.4 0.0
 
Date/Time
WST
Temp
°C
App
Temp
°C
Dew
Point
°C
Rel
Hum
%
Delta-T
°C
Wind Press
QNH
hPa
Press
MSL
hPa
Rain since
9am
mm
Dir  Spd
km/h
Gust
km/h
Spd
kts
Gust
kts
19/11:30pm 14.1 4.4 -6.1 24 7.7 ESE 37 56 20 30 1028.4 1026.7 0.0
19/11:22pm 14.4 4.7 -5.9 24 7.8 ESE 37 56 20 30 1028.4 1026.7 0.0
19/11:00pm 14.6 4.8 -6.3 23 7.9 ESE 37 50 20 27 1028.5 1026.8 0.0
19/10:30pm 14.9 5.9 -6.0 23 8.0 SE 33 50 18 27 1028.7 1027.1 0.0
19/10:00pm 14.9 6.0 -5.5 24 7.9 SE 33 44 18 24 1028.5 1026.8 0.0
19/09:30pm 15.2 6.5 -5.2 24 8.0 SE 32 44 17 24 1028.4 1026.7 0.0

Other formats

Comma delimited format used in spreadsheet applications
http://www.bom.gov.au/fwo/IDW60801/IDW60801.99313.axf

JavaScript Object Notation format (JSON) in row-major order
http://www.bom.gov.au/fwo/IDW60801/IDW60801.99313.json

Data quality

Most of these data are generated automatically and are frequently updated. Quality checks on data are not normally performed. It is possible for incorrect values to appear. Refer to information at About Latest Weather Observations and please check the disclaimer before using these data.